Time;durP1;ratioP1;P1;durP2;ratioP2;P2;SDS_P1;SDS_P2;PMS_P1;PMS_P2;Temp;Humidity;BMP_temperature;BMP_pressure;BME280_temperature;BME280_humidity;BME280_pressure;Samples;Min_cycle;Max_cycle;Signal;HPM_P1;HPM_P2
2021/12/12 00:01:07;;;;;;;67.25;39.80;;;;;;;-2.07;100.00;100313.69;5076368;28;20272;-90
2021/12/12 00:03:45;;;;;;;71.75;41.75;;;;;;;-2.09;100.00;100301.78;5076066;28;20220;-85
2021/12/12 00:06:15;;;;;;;63.85;38.83;;;;;;;-2.06;100.00;100317.13;5092376;28;20039;-83
2021/12/12 00:08:44;;;;;;;67.70;37.90;;;;;;;-2.11;100.00;100299.19;5086267;28;20113;-84
2021/12/12 00:11:13;;;;;;;68.13;38.08;;;;;;;-2.03;100.00;100324.81;5082057;28;20039;-83
2021/12/12 00:13:46;;;;;;;65.68;36.78;;;;;;;-2.13;100.00;100317.88;5082437;28;20024;-84
2021/12/12 00:16:12;;;;;;;74.43;43.00;;;;;;;-2.16;100.00;100320.38;5078380;28;20480;-84
2021/12/12 00:18:38;;;;;;;68.22;40.20;;;;;;;-2.30;100.00;100310.81;5063345;28;20028;-84
2021/12/12 00:21:09;;;;;;;68.82;39.20;;;;;;;-2.30;100.00;100322.72;5063711;28;20124;-84
2021/12/12 00:23:34;;;;;;;;;;;;;;;-2.27;100.00;100328.72;5055842;28;20154;-84
2021/12/12 00:26:01;;;;;;;70.78;39.80;;;;;;;-2.34;100.00;100324.34;5054173;28;19986;-84
2021/12/12 00:28:28;;;;;;;68.80;39.83;;;;;;;-2.37;100.00;100328.53;5053035;28;20464;-84
2021/12/12 00:30:58;;;;;;;77.90;42.67;;;;;;;-2.40;100.00;100321.72;5052807;28;20376;-84
2021/12/12 00:33:23;;;;;;;132.70;65.18;;;;;;;-2.42;100.00;100331.00;5053689;28;20044;-84
2021/12/12 00:35:50;;;;;;;118.78;58.30;;;;;;;-2.48;100.00;100322.41;5054080;28;20503;-84
2021/12/12 00:38:29;;;;;;;105.57;52.72;;;;;;;-2.51;100.00;100325.75;5052667;28;20032;-83
2021/12/12 00:40:59;;;;;;;102.15;50.92;;;;;;;-2.57;100.00;100323.09;5052620;28;20024;-82
2021/12/12 00:43:28;;;;;;;110.45;54.65;;;;;;;-2.62;100.00;100315.38;5056127;28;20127;-84
2021/12/12 00:45:57;;;;;;;73.32;39.47;;;;;;;-2.66;100.00;100308.50;5053700;28;20021;-84
2021/12/12 00:48:24;;;;;;;74.05;41.72;;;;;;;-2.65;100.00;100317.03;5052413;28;20463;-82
2021/12/12 00:50:51;;;;;;;67.85;38.92;;;;;;;-2.74;100.00;100302.41;5053847;28;20017;-83
2021/12/12 00:53:20;;;;;;;74.88;42.00;;;;;;;-2.80;100.00;100292.09;5053883;28;20102;-83
2021/12/12 00:55:47;;;;;;;69.65;39.88;;;;;;;-2.71;100.00;100307.56;5052286;28;20033;-85
2021/12/12 00:58:15;;;;;;;63.80;36.92;;;;;;;-2.54;100.00;100328.25;5053789;28;20032;-85
2021/12/12 01:00:48;;;;;;;61.58;36.63;;;;;;;-2.42;100.00;100343.78;5052330;28;20032;-83
2021/12/12 01:03:16;;;;;;;64.00;35.95;;;;;;;-2.41;100.00;100324.22;5053367;28;20029;-82
2021/12/12 01:05:45;;;;;;;62.50;36.40;;;;;;;-2.29;100.00;100339.72;5057713;28;20029;-84
2021/12/12 01:08:11;;;;;;;68.00;39.50;;;;;;;-2.41;100.00;100319.13;5062022;28;20040;-84
2021/12/12 01:10:42;;;;;;;68.40;39.95;;;;;;;-2.31;100.00;100339.72;5061777;28;20020;-84
2021/12/12 01:13:08;;;;;;;;;;;;;;;-2.26;100.00;100350.84;5060876;28;20029;-84
2021/12/12 01:15:39;;;;;;;63.17;35.35;;;;;;;-2.32;100.00;100337.13;5061169;28;19908;-83
2021/12/12 01:18:19;;;;;;;67.68;33.95;;;;;;;-2.28;100.00;100332.09;5061233;28;20549;-82
2021/12/12 01:20:51;;;;;;;64.67;35.43;;;;;;;-2.29;100.00;100326.97;5061579;28;20032;-84
2021/12/12 01:23:39;;;;;;;62.25;35.65;;;;;;;-2.15;100.00;100337.38;5061523;28;20275;-83
2021/12/12 01:26:07;;;;;;;60.28;33.33;;;;;;;-2.14;100.00;100342.53;5061222;28;20025;-83
2021/12/12 01:28:36;;;;;;;63.47;35.08;;;;;;;-2.13;100.00;100338.28;5060072;28;20120;-83
2021/12/12 01:31:05;;;;;;;56.22;32.65;;;;;;;-2.16;100.00;100336.53;5060746;28;20021;-82
2021/12/12 01:33:35;;;;;;;59.38;32.42;;;;;;;-2.23;100.00;100322.00;5061356;28;20032;-83
2021/12/12 01:36:06;;;;;;;60.15;32.03;;;;;;;-2.15;100.00;100332.28;5063319;28;20017;-83
2021/12/12 01:38:50;;;;;;;62.95;33.75;;;;;;;-2.09;100.00;100338.34;5055301;28;20366;-83
2021/12/12 01:41:17;;;;;;;60.03;32.65;;;;;;;-2.14;100.00;100324.69;5051810;28;20017;-84
2021/12/12 01:43:46;;;;;;;64.88;34.58;;;;;;;-2.13;100.00;100317.88;5050506;28;20072;-83
2021/12/12 01:46:19;;;;;;;58.22;31.55;;;;;;;-2.14;100.00;100317.03;5051557;28;20029;-83
2021/12/12 01:48:55;;;;;;;63.10;33.75;;;;;;;-2.11;100.00;100316.19;5052545;28;20068;-82
2021/12/12 01:51:22;;;;;;;57.80;31.27;;;;;;;-2.07;100.00;100330.72;5052870;28;20017;-82
2021/12/12 01:53:51;;;;;;;56.80;32.88;;;;;;;-2.04;100.00;100326.53;5051366;28;20040;-82
2021/12/12 01:56:42;;;;;;;61.67;33.85;;;;;;;-2.03;100.00;100325.69;5052635;28;20483;-82
2021/12/12 01:59:09;;;;;;;60.67;31.10;;;;;;;-2.06;100.00;100315.44;5051087;28;20477;-82
2021/12/12 02:01:44;;;;;;;56.85;30.50;;;;;;;-2.18;100.00;100299.09;5052389;28;20067;-82
2021/12/12 02:04:14;;;;;;;58.22;32.78;;;;;;;-2.14;100.00;100314.47;5051255;28;20024;-83
2021/12/12 02:06:45;;;;;;;62.15;33.58;;;;;;;-2.17;100.00;100309.31;5048113;28;20547;-82
2021/12/12 02:09:11;;;;;;;57.30;31.98;;;;;;;-2.10;100.00;100323.03;5051046;28;20025;-82
2021/12/12 02:11:39;;;;;;;58.40;32.40;;;;;;;-2.19;100.00;100307.56;5052356;28;20025;-83
2021/12/12 02:14:10;;;;;;;55.50;31.52;;;;;;;-2.14;100.00;100311.91;5051862;28;20106;-82
2021/12/12 02:16:44;;;;;;;54.85;30.38;;;;;;;-2.20;100.00;100293.94;5051231;28;20425;-82
2021/12/12 02:19:13;;;;;;;54.15;31.80;;;;;;;-2.11;100.00;100304.28;5050987;28;20423;-83
2021/12/12 02:22:15;;;;;;;57.05;32.70;;;;;;;-2.23;100.00;100280.28;5050939;28;20061;-82
2021/12/12 02:35:45;;;;;;;60.13;31.50;;;;;;;-2.14;100.00;100300.84;5052253;28;20087;-84
2021/12/12 02:38:15;;;;;;;55.00;31.30;;;;;;;-2.09;100.00;100306.88;5052018;28;20051;-83
2021/12/12 02:40:46;;;;;;;57.53;32.20;;;;;;;-2.14;100.00;100303.41;5050665;28;20021;-83
2021/12/12 02:43:16;;;;;;;56.13;32.15;;;;;;;-2.17;100.00;100301.66;5050213;28;20122;-83
2021/12/12 02:45:43;;;;;;;60.40;34.90;;;;;;;-2.20;100.00;100293.94;5050762;28;20035;-83
2021/12/12 02:48:15;;;;;;;69.22;38.22;;;;;;;-2.05;100.00;100319.72;5050487;28;20033;-84
2021/12/12 02:50:45;;;;;;;95.15;46.17;;;;;;;-2.01;100.00;100333.38;5050590;28;20044;-84
2021/12/12 02:53:18;;;;;;;86.30;45.17;;;;;;;-1.97;100.00;100324.06;5051761;28;20107;-84
2021/12/12 02:55:48;;;;;;;99.68;48.28;;;;;;;-1.90;100.00;100342.03;5051322;28;20673;-86
2021/12/12 02:58:16;;;;;;;88.72;46.58;;;;;;;-1.97;100.00;100340.25;5050640;28;20044;-86
2021/12/12 03:00:50;;;;;;;78.35;42.40;;;;;;;-1.98;100.00;100335.09;5050573;28;20612;-86
2021/12/12 03:03:16;;;;;;;82.45;44.70;;;;;;;-2.07;100.00;100331.56;5050302;28;20033;-84
2021/12/12 03:05:44;;;;;;;91.72;45.33;;;;;;;-2.08;100.00;100324.75;5051593;28;20507;-85
2021/12/12 03:08:12;;;;;;;67.25;36.72;;;;;;;-2.07;100.00;100326.47;5050111;28;20021;-84
2021/12/12 03:10:44;;;;;;;66.43;37.17;;;;;;;-2.11;100.00;100331.50;5050416;28;20029;-84
2021/12/12 03:13:10;;;;;;;65.95;38.72;;;;;;;-1.94;100.00;100360.69;5051603;28;20029;-84
2021/12/12 03:15:39;;;;;;;64.18;37.72;;;;;;;-1.95;100.00;100358.13;5050203;28;20693;-84
2021/12/12 03:18:08;;;;;;;67.05;40.25;;;;;;;-1.97;100.00;100354.72;5051406;28;20033;-84
2021/12/12 03:20:37;;;;;;;63.90;36.22;;;;;;;-1.98;100.00;100350.41;5050113;28;20692;-84
2021/12/12 03:23:14;;;;;;;66.53;37.67;;;;;;;-1.97;100.00;100357.25;5051388;28;20033;-84
2021/12/12 03:25:40;;;;;;;72.00;39.17;;;;;;;-1.90;100.00;100369.25;5048887;28;20067;-84
2021/12/12 03:28:08;;;;;;;65.85;36.95;;;;;;;-1.98;100.00;100350.41;5048587;28;20040;-84
2021/12/12 03:30:34;;;;;;;96.53;46.47;;;;;;;-1.91;100.00;100367.56;5032233;28;20040;-84
2021/12/12 03:33:00;;;;;;;86.65;46.20;;;;;;;-2.01;100.00;100356.34;5048725;28;20568;-84
2021/12/12 03:35:26;;;;;;;81.50;42.47;;;;;;;-1.94;100.00;100372.59;5048947;28;20116;-84
2021/12/12 03:37:51;;;;;;;76.22;41.78;;;;;;;-2.00;100.00;100368.28;5048959;28;20505;-82
2021/12/12 03:40:22;;;;;;;80.35;42.85;;;;;;;-2.12;100.00;100361.28;5048943;28;20033;-83
2021/12/12 03:42:49;;;;;;;;;;;;;;;-2.01;100.00;100387.84;5032306;28;20095;-82
2021/12/12 03:45:16;;;;;;;106.60;50.90;;;;;;;-2.17;100.00;100378.22;5048736;28;19940;-82
2021/12/12 03:47:46;;;;;;;194.55;80.78;;;;;;;-2.20;100.00;100374.75;5049071;28;20142;-83
2021/12/12 03:50:21;;;;;;;117.00;57.80;;;;;;;-2.13;100.00;100397.84;5048976;28;20050;-83
2021/12/12 03:52:48;;;;;;;86.75;48.00;;;;;;;-2.17;100.00;100390.13;5048502;28;20144;-82
2021/12/12 03:55:15;;;;;;;78.88;44.92;;;;;;;-2.30;100.00;100383.94;5048838;28;20036;-82
2021/12/12 03:57:41;;;;;;;67.85;41.17;;;;;;;-2.33;100.00;100386.44;5048528;28;20030;-82
2021/12/12 04:00:12;;;;;;;66.35;41.00;;;;;;;-2.30;100.00;100395.00;5048406;28;20044;-82
2021/12/12 04:02:38;;;;;;;66.68;39.95;;;;;;;-2.37;100.00;100388.06;5035141;28;20041;-82
2021/12/12 04:05:04;;;;;;;64.28;39.45;;;;;;;-2.34;100.00;100403.44;5050829;28;20035;-82
2021/12/12 04:07:32;;;;;;;61.35;37.13;;;;;;;-2.40;100.00;100394.81;5052097;28;20497;-82
2021/12/12 04:09:58;;;;;;;61.05;35.65;;;;;;;-2.41;100.00;100401.59;5071757;28;20049;-82
2021/12/12 04:12:24;;;;;;;51.95;32.33;;;;;;;-2.38;100.00;100408.47;5072156;28;20574;-82
2021/12/12 04:14:52;;;;;;;53.13;34.25;;;;;;;-2.54;100.00;100395.41;5071649;28;20075;-82
2021/12/12 04:17:24;;;;;;;59.30;35.85;;;;;;;-2.44;100.00;100413.44;5072106;28;20029;-82
2021/12/12 04:19:53;;;;;;;63.10;37.60;;;;;;;-2.57;100.00;100397.94;5071630;28;20036;-82
2021/12/12 04:22:19;;;;;;;57.80;34.75;;;;;;;-2.59;100.00;100403.81;5071902;28;20035;-82
2021/12/12 04:24:48;;;;;;;60.42;39.65;;;;;;;-2.57;100.00;100410.69;5071617;28;20037;-83
2021/12/12 04:27:16;;;;;;;60.90;36.50;;;;;;;-2.65;100.00;100403.72;5071641;28;20025;-83
2021/12/12 04:29:44;;;;;;;58.10;34.72;;;;;;;-2.65;100.00;100398.63;5054922;28;20036;-83
2021/12/12 04:32:17;;;;;;;54.40;32.45;;;;;;;-2.63;100.00;100415.66;5071579;28;20025;-83
2021/12/12 04:34:47;;;;;;;53.92;33.72;;;;;;;-2.75;100.00;100410.31;5071552;28;20114;-82
2021/12/12 04:37:14;;;;;;;59.10;35.37;;;;;;;-2.76;100.00;100418.81;5071806;28;20032;-82
2021/12/12 04:39:43;;;;;;;49.22;32.75;;;;;;;-2.72;100.00;100429.94;5054861;28;20813;-83
2021/12/12 04:42:12;;;;;;;52.08;32.85;;;;;;;-2.86;100.00;100416.91;5053815;28;20663;-83
2021/12/12 04:44:40;;;;;;;61.70;35.97;;;;;;;-2.91;100.00;100421.03;5054057;28;20053;-83
2021/12/12 04:50:49;;;;;;;65.30;36.42;;;;;;;-2.91;100.00;100438.88;5054064;28;20143;-82
2021/12/12 04:53:27;;;;;;;71.28;40.55;;;;;;;-2.98;100.00;100442.16;5053858;28;20053;-82
2021/12/12 04:55:58;;;;;;;83.20;44.33;;;;;;;-3.07;100.00;100430.94;5053551;28;20056;-82
2021/12/12 04:58:41;;;;;;;96.00;51.55;;;;;;;-3.27;100.00;100396.53;5053637;28;20469;-83
2021/12/12 05:01:18;;;;;;;100.53;47.55;;;;;;;-3.20;100.00;100425.53;5052243;28;20021;-83
2021/12/12 05:03:52;;;;;;;83.85;41.72;;;;;;;-3.11;100.00;100439.34;5052331;28;20472;-83
2021/12/12 05:06:41;;;;;;;79.50;43.22;;;;;;;-3.30;100.00;100420.25;5052374;28;20123;-82
2021/12/12 05:09:10;;;;;;;93.93;48.67;;;;;;;-3.31;100.00;100420.22;5053240;28;20029;-82
2021/12/12 05:11:47;;;;;;;106.80;51.75;;;;;;;-3.28;100.00;100435.59;5052323;28;20021;-83
2021/12/12 05:14:22;;;;;;;120.93;58.47;;;;;;;-3.38;100.00;100413.25;5052086;28;20033;-83
2021/12/12 05:16:52;;;;;;;89.75;51.10;;;;;;;-3.33;100.00;100420.19;5051881;28;20032;-83
2021/12/12 05:19:24;;;;;;;135.02;63.65;;;;;;;-3.27;100.00;100432.19;5051775;28;20051;-83
2021/12/12 05:21:56;;;;;;;135.27;63.03;;;;;;;-3.30;100.00;100432.13;5051825;28;20500;-83
2021/12/12 05:24:24;;;;;;;147.95;66.13;;;;;;;-3.35;100.00;100420.97;5051960;28;20158;-83
2021/12/12 05:26:53;;;;;;;136.57;63.58;;;;;;;-3.42;100.00;100419.97;5053073;28;20071;-82
2021/12/12 05:29:32;;;;;;;137.02;63.90;;;;;;;-3.43;100.00;100422.50;5053234;28;20036;-83
2021/12/12 05:32:01;;;;;;;128.45;63.42;;;;;;;-3.41;100.00;100426.81;5051370;28;20036;-83
2021/12/12 05:34:30;;;;;;;125.10;59.40;;;;;;;-3.41;100.00;100437.00;5051873;28;20031;-83
2021/12/12 05:36:57;;;;;;;114.05;54.30;;;;;;;-3.49;100.00;100435.97;5051537;28;20018;-83
2021/12/12 05:39:24;;;;;;;100.18;50.45;;;;;;;-3.44;100.00;100449.66;5053033;28;20036;-83
2021/12/12 05:41:52;;;;;;;110.28;51.40;;;;;;;-3.49;100.00;100466.53;5052568;28;20106;-83
2021/12/12 05:44:18;;;;;;;92.22;45.63;;;;;;;-3.53;100.00;100468.13;5051193;28;20098;-83
2021/12/12 05:46:44;;;;;;;83.07;41.92;;;;;;;-3.67;100.00;100453.34;5051641;28;20384;-82
2021/12/12 05:49:10;;;;;;;71.32;37.60;;;;;;;-3.59;100.00;100472.22;5052969;28;20028;-83
2021/12/12 05:51:36;;;;;;;65.80;36.38;;;;;;;-3.61;100.00;100474.72;5053030;28;20500;-83
2021/12/12 05:54:03;;;;;;;68.45;38.28;;;;;;;-3.74;100.00;100460.00;5052745;28;20036;-83
2021/12/12 05:56:33;;;;;;;56.63;32.40;;;;;;;-3.81;100.00;100447.94;5051526;28;20017;-82
2021/12/12 05:58:59;;;;;;;48.55;29.58;;;;;;;-3.65;100.00;100482.25;5052253;28;20087;-83
2021/12/12 06:01:26;;;;;;;46.05;27.98;;;;;;;-3.86;100.00;100465.63;5051359;28;20033;-81
2021/12/12 06:03:52;;;;;;;45.50;27.52;;;;;;;-3.82;100.00;100484.41;5050980;28;20024;-82
2021/12/12 06:06:23;;;;;;;53.65;31.83;;;;;;;-3.85;100.00;100485.16;5051275;28;20032;-82
2021/12/12 06:08:49;;;;;;;54.30;32.38;;;;;;;-4.01;100.00;100477.97;5052146;28;20376;-82
2021/12/12 06:11:20;;;;;;;53.05;31.33;;;;;;;-4.03;100.00;100480.50;5052396;28;20512;-84
2021/12/12 06:13:46;;;;;;;58.85;31.83;;;;;;;-4.10;100.00;100490.47;5050552;28;20032;-83
2021/12/12 06:16:19;;;;;;;52.72;29.40;;;;;;;-4.21;100.00;100480.03;5052609;28;20032;-82
2021/12/12 06:18:50;;;;;;;50.70;29.58;;;;;;;-4.17;100.00;100498.75;5050788;28;20032;-82
2021/12/12 06:21:15;;;;;;;;;;;;;;;-4.19;100.00;100506.34;5051401;28;20392;-82
2021/12/12 06:23:41;;;;;;;60.47;32.83;;;;;;;-4.26;100.00;100494.28;5052071;28;19942;-83
2021/12/12 06:26:06;;;;;;;52.88;31.58;;;;;;;-4.28;100.00;100504.41;5051772;28;20075;-83
2021/12/12 06:28:35;;;;;;;54.75;30.73;;;;;;;-4.45;100.00;100477.69;5052497;28;20060;-83
2021/12/12 06:31:03;;;;;;;48.55;28.50;;;;;;;-4.41;100.00;100510.00;5051482;28;20025;-83
2021/12/12 06:33:31;;;;;;;51.40;29.45;;;;;;;-4.35;100.00;100522.00;5052018;28;20031;-84
2021/12/12 06:35:57;;;;;;;49.47;27.40;;;;;;;-4.41;100.00;100515.09;5050440;28;20120;-84
2021/12/12 06:38:23;;;;;;;57.22;32.15;;;;;;;-4.31;100.00;100528.91;5051802;28;20041;-84
2021/12/12 06:40:49;;;;;;;57.92;31.67;;;;;;;-4.56;100.00;100497.72;5051906;28;20068;-82
2021/12/12 06:43:17;;;;;;;63.42;32.95;;;;;;;-4.39;100.00;100536.31;5051538;28;20052;-92
2021/12/12 06:45:43;;;;;;;56.95;31.83;;;;;;;-4.43;100.00;100542.13;5051921;28;20028;-84
2021/12/12 06:48:10;;;;;;;45.72;28.02;;;;;;;-4.61;100.00;100504.34;5050429;28;20033;-84
2021/12/12 06:50:40;;;;;;;54.28;31.60;;;;;;;-4.34;100.00;100537.31;5050451;28;20025;-83
2021/12/12 06:53:07;;;;;;;53.60;30.05;;;;;;;-4.43;100.00;100515.84;5051814;28;20063;-83
2021/12/12 06:55:34;;;;;;;65.07;35.53;;;;;;;-4.26;100.00;100534.97;5050589;28;20037;-83
2021/12/12 06:58:00;;;;;;;112.60;59.33;;;;;;;-4.36;100.00;100527.91;5051577;28;20072;-83
2021/12/12 07:00:27;;;;;;;89.07;48.97;;;;;;;-4.35;100.00;100527.94;5050465;28;20053;-84
2021/12/12 07:02:53;;;;;;;92.97;48.97;;;;;;;-4.45;100.00;100518.34;5051449;28;20036;-83
2021/12/12 07:05:22;;;;;;;99.22;53.45;;;;;;;-4.50;100.00;100501.25;5051551;28;20021;-83
2021/12/12 07:07:50;;;;;;;89.25;47.55;;;;;;;-4.41;100.00;100529.47;5051307;28;20120;-83
2021/12/12 07:10:20;;;;;;;80.93;45.05;;;;;;;-4.43;100.00;100531.09;5051769;28;20025;-83
2021/12/12 07:12:48;;;;;;;81.18;42.70;;;;;;;-4.40;100.00;100533.75;5051424;28;20074;-83
2021/12/12 07:15:15;;;;;;;73.40;38.83;;;;;;;-4.40;100.00;100529.50;5050234;28;20026;-82
2021/12/12 07:17:41;;;;;;;78.68;39.22;;;;;;;-4.54;100.00;100515.56;5050316;28;20017;-82
2021/12/12 07:20:09;;;;;;;67.00;36.38;;;;;;;-4.45;100.00;100528.53;5051181;28;20032;-83
2021/12/12 07:22:35;;;;;;;59.75;32.38;;;;;;;-4.42;100.00;100532.84;5051532;28;20036;-83
2021/12/12 07:25:04;;;;;;;61.95;31.88;;;;;;;-4.41;100.00;100535.44;5050021;28;20061;-83
2021/12/12 07:27:29;;;;;;;67.88;37.22;;;;;;;-4.36;100.00;100544.03;5051440;28;20385;-83
2021/12/12 07:29:56;;;;;;;78.32;39.13;;;;;;;-4.51;100.00;100525.78;5050107;28;20075;-83
2021/12/12 07:32:22;;;;;;;63.03;32.88;;;;;;;-4.40;100.00;100552.41;5050111;28;20029;-85
2021/12/12 07:34:48;;;;;;;75.47;37.72;;;;;;;-4.35;100.00;100561.00;5051070;28;20032;-83
2021/12/12 07:37:14;;;;;;;72.45;37.45;;;;;;;-4.42;100.00;100554.06;5050154;28;20029;-83
2021/12/12 07:39:41;;;;;;;81.30;45.38;;;;;;;-4.40;100.00;100565.13;5050158;28;20056;-83
2021/12/12 07:42:08;;;;;;;70.57;37.97;;;;;;;-4.47;100.00;100564.88;5050356;28;20048;-83
2021/12/12 07:44:36;;;;;;;76.18;40.38;;;;;;;-4.44;100.00;100564.97;5053586;28;20140;-83
2021/12/12 07:47:04;;;;;;;81.20;40.47;;;;;;;-4.50;100.00;100558.06;5053552;28;20017;-82
2021/12/12 07:49:34;;;;;;;73.57;37.58;;;;;;;-4.34;100.00;100583.09;5059915;28;20036;-82
2021/12/12 07:52:00;;;;;;;80.00;40.40;;;;;;;-4.37;100.00;100557.56;5073452;28;20460;-82
2021/12/12 07:54:27;;;;;;;69.63;38.97;;;;;;;-4.21;100.00;100557.97;5073561;28;20048;-82
2021/12/12 07:56:53;;;;;;;67.32;36.67;;;;;;;-4.01;100.00;100572.13;5073088;28;20040;-84
2021/12/12 07:59:19;;;;;;;75.55;42.95;;;;;;;-3.94;100.00;100581.66;5072045;28;20036;-83
2021/12/12 08:01:48;;;;;;;83.40;49.00;;;;;;;-3.85;100.00;100588.66;5055113;28;20047;-83
2021/12/12 08:04:15;;;;;;;73.85;47.28;;;;;;;-3.76;100.00;100577.03;5072139;28;20055;-83
2021/12/12 08:06:42;;;;;;;78.50;48.92;;;;;;;-3.66;100.00;100583.25;5055284;28;20041;-82
2021/12/12 08:09:09;;;;;;;73.63;45.67;;;;;;;-3.67;100.00;100565.34;5071863;28;20063;-82
2021/12/12 08:11:35;;;;;;;66.88;41.45;;;;;;;-3.59;100.00;100552.00;5072201;28;20029;-82
2021/12/12 08:14:05;;;;;;;70.57;41.63;;;;;;;-3.44;100.00;100576.13;5054981;28;20450;-83
2021/12/12 08:16:31;;;;;;;62.97;37.35;;;;;;;-3.40;100.00;100565.22;5071822;28;20034;-82
2021/12/12 08:18:58;;;;;;;59.97;36.83;;;;;;;-3.22;100.00;100588.56;5054890;28;20028;-83
2021/12/12 08:21:24;;;;;;;62.65;36.72;;;;;;;-3.12;100.00;100599.81;5071863;28;20479;-83
2021/12/12 08:23:50;;;;;;;63.28;36.60;;;;;;;-3.14;100.00;100586.22;5071529;28;20048;-83
2021/12/12 08:26:18;;;;;;;66.70;37.22;;;;;;;-3.08;100.00;100597.38;5071659;28;20028;-83
2021/12/12 08:28:44;;;;;;;80.65;44.80;;;;;;;-3.08;100.00;100584.63;5071673;28;20526;-83
2021/12/12 08:31:12;;;;;;;64.15;35.63;;;;;;;-3.12;100.00;100566.69;5052222;28;20063;-82
2021/12/12 08:33:38;;;;;;;70.35;37.38;;;;;;;-2.96;100.00;100585.75;5071263;28;20028;-83
2021/12/12 08:36:04;;;;;;;69.93;37.42;;;;;;;-2.86;100.00;100593.66;5054437;28;20055;-83
2021/12/12 08:38:31;;;;;;;67.10;38.35;;;;;;;-2.89;100.00;100585.94;5071424;28;20029;-83
2021/12/12 08:41:00;;;;;;;76.72;44.35;;;;;;;-2.82;100.00;100599.72;5054418;28;20072;-82
2021/12/12 08:43:27;;;;;;;65.00;37.92;;;;;;;-2.93;100.00;100589.25;5071061;28;20492;-83
2021/12/12 08:45:57;;;;;;;67.32;37.10;;;;;;;-2.94;100.00;100602.81;5054346;28;20021;-83
2021/12/12 08:48:26;;;;;;;67.72;38.47;;;;;;;-2.96;100.00;100603.59;5054359;28;20514;-83
2021/12/12 08:50:56;;;;;;;74.85;45.00;;;;;;;-2.99;100.00;100593.31;5072288;28;20116;-83
2021/12/12 08:53:23;;;;;;;61.78;35.08;;;;;;;-2.97;100.00;100586.59;5073299;28;20033;-83
2021/12/12 08:55:51;;;;;;;91.82;52.30;;;;;;;-2.89;100.00;100588.50;5072087;28;20051;-84
2021/12/12 08:58:21;;;;;;;90.35;50.53;;;;;;;-2.82;100.00;100592.06;5075974;28;20430;-83
2021/12/12 09:01:09;;;;;;;73.40;44.15;;;;;;;-2.68;100.00;100615.31;5088209;28;20024;-82
2021/12/12 09:03:59;;;;;;;109.25;64.95;;;;;;;-2.67;100.00;100624.66;5074103;28;20089;-83
2021/12/12 09:06:29;;;;;;;210.23;118.75;;;;;;;-2.71;100.00;100598.22;5082499;28;20134;-83
2021/12/12 09:09:04;;;;;;;227.88;137.05;;;;;;;-2.60;100.00;100618.88;5094237;28;20085;-82
2021/12/12 09:11:35;;;;;;;113.30;64.32;;;;;;;-2.71;100.00;100585.50;5111504;28;20343;-83
2021/12/12 09:14:10;;;;;;;67.22;39.60;;;;;;;-2.61;100.00;100605.28;5093780;28;20032;-83
2021/12/12 09:16:41;;;;;;;70.70;40.35;;;;;;;-2.54;100.00;100619.00;5111218;28;20111;-82
2021/12/12 09:19:19;;;;;;;66.95;37.70;;;;;;;-2.65;100.00;100603.50;5093728;28;20571;-82
2021/12/12 09:21:49;;;;;;;82.82;43.45;;;;;;;-2.55;100.00;100625.81;5093928;28;20077;-82
2021/12/12 09:24:29;;;;;;;81.72;43.75;;;;;;;-2.48;100.00;100623.41;5111191;28;20506;-81
2021/12/12 09:27:05;;;;;;;72.72;44.05;;;;;;;-2.50;100.00;100615.69;5093760;28;20028;-82
2021/12/12 09:29:41;;;;;;;84.60;46.70;;;;;;;-2.42;100.00;100619.28;5111131;28;20533;-82
2021/12/12 09:32:16;;;;;;;75.20;43.40;;;;;;;-2.36;100.00;100611.78;5110983;28;20520;-83
2021/12/12 09:34:55;;;;;;;206.35;99.32;;;;;;;-2.34;100.00;100614.34;5093792;28;20073;-83
2021/12/12 09:37:37;;;;;;;102.97;55.42;;;;;;;-2.29;100.00;100600.84;5093978;28;20386;-84
2021/12/12 09:40:15;;;;;;;93.03;51.45;;;;;;;-2.25;100.00;100599.22;5085174;28;20028;-83
2021/12/12 09:43:04;;;;;;;91.80;48.92;;;;;;;-2.13;100.00;100590.97;5071339;28;20387;-83
2021/12/12 09:45:40;;;;;;;89.97;47.20;;;;;;;-2.08;100.00;100584.25;5072650;28;20060;-82
2021/12/12 09:51:34;;;;;;;75.63;43.57;;;;;;;-1.97;100.00;100571.69;5050060;28;20029;-81
2021/12/12 09:54:25;;;;;;;81.32;42.53;;;;;;;-1.85;100.00;100579.59;5049749;28;20290;-81
2021/12/12 09:57:00;;;;;;;86.57;45.67;;;;;;;-1.88;100.00;100559.09;5032892;28;20488;-81
2021/12/12 09:59:32;;;;;;;94.47;52.53;;;;;;;-1.76;100.00;100569.53;5049793;28;20033;-81
2021/12/12 10:02:17;;;;;;;91.78;52.50;;;;;;;-1.76;100.00;100572.09;5032994;28;20041;-81
2021/12/12 10:05:21;;;;;;;86.75;49.00;;;;;;;-1.92;100.00;100532.66;5049001;28;20071;-81
2021/12/12 10:08:11;;;;;;;94.85;53.65;;;;;;;-1.66;100.00;100557.78;5029712;28;20511;-81
2021/12/12 10:10:51;;;;;;;86.37;47.53;;;;;;;-1.75;100.00;100532.94;5013392;28;20030;-82
2021/12/12 10:13:24;;;;;;;77.10;43.42;;;;;;;-1.58;100.00;100551.97;5029825;28;20413;-83
2021/12/12 10:15:56;;;;;;;83.45;46.60;;;;;;;-1.60;100.00;100540.00;5009951;28;20045;-83
2021/12/12 10:18:40;;;;;;;79.22;43.88;;;;;;;-1.51;100.00;100550.38;5029747;28;20031;-82
2021/12/12 10:21:12;;;;;;;78.20;45.33;;;;;;;-1.52;100.00;100538.44;5029484;28;20590;-82
2021/12/12 10:23:46;;;;;;;67.43;40.47;;;;;;;-1.39;100.00;100550.59;5012769;28;20528;-83
2021/12/12 10:26:21;;;;;;;60.28;36.30;;;;;;;-1.40;100.00;100528.41;5029567;28;20597;-83
2021/12/12 10:28:55;;;;;;;65.75;40.17;;;;;;;-1.30;100.00;100540.50;5043821;28;20044;-81
2021/12/12 10:31:40;;;;;;;67.65;39.33;;;;;;;-1.32;100.00;100531.09;5050592;28;20101;-81
2021/12/12 10:34:13;;;;;;;65.35;38.10;;;;;;;-1.17;100.00;100536.44;5050158;28;20028;-82
2021/12/12 10:36:56;;;;;;;99.65;57.50;;;;;;;-1.15;100.00;100537.31;5050643;28;20389;-82
2021/12/12 10:39:57;;;;;;;108.93;63.95;;;;;;;-1.04;100.00;100530.69;5050492;28;20067;-82
2021/12/12 10:42:30;;;;;;;108.22;61.20;;;;;;;-0.99;100.00;100533.28;5049164;28;20052;-82
2021/12/12 10:45:04;;;;;;;114.88;66.38;;;;;;;-0.93;100.00;100535.06;5048748;28;20048;-82
2021/12/12 10:47:55;;;;;;;118.95;68.90;;;;;;;-0.87;100.00;100536.03;5049198;28;20037;-81
2021/12/12 10:50:49;;;;;;;116.32;65.93;;;;;;;-0.83;100.00;100530.13;5049090;28;20032;-81
2021/12/12 10:53:25;;;;;;;114.63;65.05;;;;;;;-0.77;100.00;100532.75;5049062;28;20456;-81
2021/12/12 10:55:56;;;;;;;148.10;90.32;;;;;;;-0.70;100.00;100522.59;5032135;28;20623;-82
2021/12/12 10:58:43;;;;;;;152.75;90.97;;;;;;;-0.75;100.00;100512.31;5032430;28;20112;-82
2021/12/12 11:01:19;;;;;;;153.13;87.93;;;;;;;-0.70;100.00;100507.25;5048816;28;20033;-83
2021/12/12 11:04:19;;;;;;;121.90;70.47;;;;;;;-0.68;100.00;100513.25;5048872;28;20029;-81
2021/12/12 11:06:53;;;;;;;150.10;80.10;;;;;;;-0.53;100.00;100531.34;5062302;28;20041;-82
2021/12/12 11:09:34;;;;;;;107.97;61.45;;;;;;;-0.48;100.00;100539.09;5059818;28;20048;-81
2021/12/12 11:12:10;;;;;;;90.22;49.85;;;;;;;-0.48;100.00;100539.94;5017741;28;20037;-81
2021/12/12 11:14:53;;;;;;;67.25;38.97;;;;;;;-0.59;100.00;100515.91;5012428;28;20068;-81
2021/12/12 11:17:27;;;;;;;69.68;39.40;;;;;;;-0.52;100.00;100516.00;5029617;28;20037;-81
2021/12/12 11:20:03;;;;;;;73.15;40.17;;;;;;;-0.52;100.00;100508.34;5051881;28;20491;-82
2021/12/12 11:22:42;;;;;;;83.13;48.17;;;;;;;-0.40;100.00;100525.53;5055692;28;20108;-81
2021/12/12 11:25:14;;;;;;;82.07;45.08;;;;;;;-0.39;100.00;100519.56;5055344;28;20134;-83
2021/12/12 11:27:46;;;;;;;90.57;47.88;;;;;;;-0.56;100.00;100493.78;5055401;28;20108;-82
2021/12/12 11:30:23;;;;;;;72.57;40.83;;;;;;;-0.53;100.00;100496.38;5054125;28;20053;-84
2021/12/12 11:32:52;;;;;;;65.05;39.72;;;;;;;-0.35;100.00;100523.88;5055281;28;20060;-85
2021/12/12 11:35:27;;;;;;;67.28;38.35;;;;;;;-0.37;100.00;100515.34;5055357;28;20071;-87
2021/12/12 11:38:20;;;;;;;79.53;45.25;;;;;;;-0.16;100.00;100519.84;5035652;28;20049;-84